Flight Track Log - Related Links

Times and Time Zones

All times are in EDT time to prevent confusion due to time zone crossing. See the DAL3676 flight status page for this flight to view local times or setup timezone preferences in your user account.

Time Position Orientation Groundspeed Altitude Reporting Facility
EDT Latitude Longitude Course Direction KTS MPH feet Rate Location/Type
Fri 02:24:36 PM 40.7964 -96.7475 165° South 165 190 3,200  Level Minneapolis Center
Fri 02:25:05 PM 40.7894 -96.7297 117° Southeast 182 209 4,600 2,800 Climbing Minneapolis Center
Fri 02:25:36 PM 40.7772 -96.6725 106° East 254 292 6,000 2,032 Climbing Minneapolis Center
Fri 02:26:07 PM 40.8111 -96.6478 29° Northeast 258 297 6,700 2,452 Climbing Minneapolis Center
Fri 02:27:09 PM 40.8742 -96.5794 39° Northeast 287 330 9,800 2,323 Climbing Minneapolis Center
Fri 02:28:11 PM 40.9353 -96.5006 44° Northeast 300 345 11,500 1,984 Climbing Minneapolis Center
Fri 02:29:13 PM 41.0028 -96.4153 44° Northeast 324 373 13,900 2,129 Climbing Minneapolis Center
Fri 02:30:15 PM 41.0692 -96.3339 43° Northeast 327 376 15,900 1,935 Climbing Minneapolis Center
Fri 02:31:17 PM 41.1394 -96.2422 44° Northeast 332 382 17,900 1,790 Climbing Minneapolis Center
Fri 02:32:19 PM 41.2203 -96.1383 44° Northeast 335 386 19,600 1,548 Climbing Minneapolis Center
Fri 02:33:21 PM 41.2894 -96.0486 44° Northeast 344 396 21,100 1,403 Climbing Minneapolis Center
Fri 02:34:23 PM 41.3594 -95.9586 44° Northeast 349 402 22,500 1,248 Climbing Minneapolis Center
Fri 02:35:26 PM 41.4306 -95.8667 44° Northeast 356 410 23,700 1,104 Climbing Minneapolis Center
Fri 02:36:28 PM 41.5044 -95.7731 43° Northeast 363 418 24,800 1,016 Climbing Minneapolis Center
Fri 02:37:30 PM 41.5778 -95.6767 45° Northeast 368 423 25,800 968 Climbing Minneapolis Center
Fri 02:38:32 PM 41.6578 -95.5731 44° Northeast 378 435 26,800 581 Climbing Minneapolis Center
Fri 02:39:34 PM 41.7336 -95.4725 45° Northeast 382 440 27,000 97 Climbing Minneapolis Center
Fri 02:40:36 PM 41.8281 -95.3497 44° Northeast 390 449 27,000  Level Minneapolis Center
Fri 02:41:38 PM 41.9061 -95.2453 45° Northeast 394 453 27,000  Level Minneapolis Center
Fri 02:42:40 PM 41.9844 -95.1428 44° Northeast 395 455 27,000  Level Minneapolis Center
Fri 02:43:42 PM 42.0614 -95.0397 45° Northeast 393 452 27,000  Level Minneapolis Center
Fri 02:44:44 PM 42.1378 -94.9350 45° Northeast 392 451 27,000  Level Minneapolis Center
Fri 02:45:46 PM 42.2150 -94.8325 44° Northeast 391 450 27,000  Level Minneapolis Center
Fri 02:46:49 PM 42.3075 -94.7092 45° Northeast 388 447 27,000  Level Minneapolis Center
Fri 02:47:51 PM 42.3831 -94.6061 45° Northeast 388 447 27,000  Level Minneapolis Center
Fri 02:48:53 PM 42.4600 -94.5036 44° Northeast 387 445 27,000  Level Minneapolis Center
Fri 02:49:55 PM 42.5272 -94.4083 46° Northeast 382 440 27,000  Level Minneapolis Center
Fri 02:50:57 PM 42.6181 -94.2856 45° Northeast 385 443 27,000  Level Minneapolis Center
Fri 02:51:59 PM 42.7014 -94.1964 38° Northeast 382 440 27,000  Level Minneapolis Center
Fri 02:53:01 PM 42.7831 -94.1056 39° Northeast 382 440 27,000  Level Minneapolis Center
Fri 02:54:03 PM 42.8656 -94.0156 39° Northeast 382 440 27,000  Level Minneapolis Center
Fri 02:55:05 PM 42.9472 -93.9261 39° Northeast 380 437 27,000  Level Minneapolis Center
Fri 02:56:07 PM 43.0458 -93.8178 39° Northeast 381 438 27,000  Level Minneapolis Center
Fri 02:57:09 PM 43.1264 -93.7275 39° Northeast 378 435 27,000  Level Minneapolis Center
Fri 02:58:11 PM 43.2072 -93.6378 39° Northeast 378 435 27,000 -384 Level Minneapolis Center
Fri 02:59:14 PM 43.2906 -93.5558 36° Northeast 376 433 26,200 -1,200 Descending Minneapolis Center
Fri 03:00:16 PM 43.3872 -93.5431 North 352 405 24,500 -1,065 Descending Minneapolis Center
Fri 03:01:18 PM 43.4792 -93.5361 North 340 391 24,000 -435 Descending Minneapolis Center
Fri 03:02:20 PM 43.5869 -93.5244 North 332 382 23,600 -1,065 Descending Minneapolis Center
Fri 03:03:22 PM 43.6786 -93.5147 North 331 381 21,800 -1,742 Descending Minneapolis Center
Fri 03:04:24 PM 43.7689 -93.5072 North 327 376 20,000 -1,742 Descending Minneapolis Center
Fri 03:05:26 PM 43.8553 -93.4981 North 317 365 18,200 -1,839 Descending Minneapolis Center
Fri 03:06:28 PM 43.9553 -93.4897 North 305 351 16,200 -1,839 Descending Minneapolis Center
Fri 03:07:30 PM 44.0361 -93.4817 North 297 342 14,400 -1,790 Descending Minneapolis Center
Fri 03:08:32 PM 44.1161 -93.4742 North 290 334 12,500 -1,597 Descending Minneapolis Center
Fri 03:09:34 PM 44.1942 -93.4664 North 284 327 11,100 -726 Descending Minneapolis Center
Fri 03:10:36 PM 44.2697 -93.4358 16° North 286 329 11,000 -48 Descending Minneapolis Center
Fri 03:11:38 PM 44.3419 -93.3861 26° Northeast 291 335 11,000  Level Minneapolis Center
Fri 03:12:40 PM 44.4292 -93.3244 27° Northeast 294 338 11,000  Level Minneapolis Center
Fri 03:13:42 PM 44.5044 -93.2719 26° Northeast 302 348 11,000 -48 Level Minneapolis Center
Fri 03:14:44 PM 44.5786 -93.2197 27° Northeast 302 348 10,900 -823 Descending Minneapolis Center
Fri 03:15:46 PM 44.6481 -93.1847 20° North 267 307 9,300 -1,403 Descending Minneapolis Center
Fri 03:16:48 PM 44.7122 -93.2314 333° Northwest 258 297 8,000 -629 Descending Minneapolis Center
Fri 03:17:50 PM 44.7789 -93.2733 336° Northwest 247 284 8,000 -488 Level Minneapolis Center
Fri 03:18:51 PM 44.8247 -93.3189 325° Northwest 205 236 7,000 -1,171 Descending Minneapolis Center
Fri 03:19:53 PM 44.8508 -93.3736 304° West 168 193 5,600 -1,500 Descending Minneapolis Center
Fri 03:20:55 PM 44.8797 -93.4117 317° Northwest 194 223 3,900 -1,258 Descending Minneapolis Center
Fri 03:21:57 PM 44.9264 -93.3333 50° Northeast 220 253 3,000 -1,113 Descending Minneapolis Center
Fri 03:22:59 PM 44.9025 -93.2678 117° Southeast 183 211 1,600 -1,355 Descending Minneapolis Center
Fri 03:24:00 PM 44.8820 -93.2218 35° Northeast  Level Estimated
Fri 03:31:00 PM 44.8820 -93.2218 35° Northeast  Level Estimated

Login

Don't have an account? Register now (free) for customized features, flight alerts, and more!